Panamoka, New York
Current Conditions -  °F | °C
As of 12:53 AM on Monday 20 Oct 2014 (Local Time) from KFOK Reporting Station
Clear Clear  
Wind Chill: 39°   Ceiling: Unl
Heat Index: 44°   Visibility: 10mi
Dew Point: 27°   Wind: 10mph
Humidity: 51%   Direction: 330°NNW
Pressure: 30.05"   Gusts: 23mph
Location:  40.8942°N, 72.8763°W
Report Text: KFOK 200453Z AUTO 33009G20KT 10SM CLR 07/M03 A3005 RMK AO2 SLP175 T00671028 401440061 TSNO
Loading
Personal Weather Stations






























Interactive Weather Map
Tropical Storm Tracking
New forecast layout! Learn more

10-Day Weather Forecast

Advertisements
Track Severe Weather on mobile